Time;durP1;ratioP1;P1;durP2;ratioP2;P2;SDS_P1;SDS_P2;PMS_P1;PMS_P2;Temp;Humidity;BMP_temperature;BMP_pressure;BME280_temperature;BME280_humidity;BME280_pressure;Samples;Min_cycle;Max_cycle;Signal;HPM_P1;HPM_P2
2021/10/06 00:02:16;;;;;;;31.35;16.35;;;;;;;;;;4872653;29;20669;-89
2021/10/06 00:05:28;;;;;;;33.25;15.93;;;;;;;;;;4873738;29;20181;-91
2021/10/06 00:08:39;;;;;;;27.77;15.07;;;;;;;;;;4856202;29;20271;-91
2021/10/06 00:11:51;;;;;;;29.52;15.35;;;;;;;;;;4853374;29;20262;-91
2021/10/06 00:15:02;;;;;;;34.92;16.50;;;;;;;;;;4854825;29;20190;-90
2021/10/06 00:18:17;;;;;;;26.80;14.55;;;;;;;;;;4865805;29;20214;-90
2021/10/06 00:21:28;;;;;;;30.33;15.38;;;;;;;;;;4860410;29;20226;-91
2021/10/06 00:24:41;;;;;;;28.10;15.27;;;;;;;;;;4861872;29;20190;-91
2021/10/06 00:27:53;;;;;;;32.28;15.55;;;;;;;;;;4872097;29;20198;-89
2021/10/06 00:31:05;;;;;;;33.60;16.10;;;;;;;;;;4874802;29;20226;-90
2021/10/06 00:34:21;;;;;;;34.60;15.27;;;;;;;;;;4868167;29;20213;-90
2021/10/06 00:37:32;;;;;;;31.80;15.43;;;;;;;;;;4874142;29;20312;-90
2021/10/06 00:40:44;;;;;;;26.95;13.43;;;;;;;;;;4874748;29;20217;-90
2021/10/06 00:43:56;;;;;;;29.45;13.90;;;;;;;;;;4871563;29;20215;-90
2021/10/06 00:47:11;;;;;;;25.38;13.80;;;;;;;;;;4855599;29;20207;-90
2021/10/06 00:50:23;;;;;;;19.67;10.73;;;;;;;;;;4862191;29;20213;-90
2021/10/06 00:53:35;;;;;;;21.60;10.98;;;;;;;;;;4877121;29;20189;-89
2021/10/06 00:56:47;;;;;;;16.80;10.15;;;;;;;;;;4875359;29;20201;-90
2021/10/06 00:59:59;;;;;;;19.75;10.15;;;;;;;;;;4874139;29;20685;-89
2021/10/06 01:03:11;;;;;;;18.85;9.73;;;;;;;;;;4874094;29;20258;-91
2021/10/06 01:06:25;;;;;;;15.07;8.18;;;;;;;;;;4855156;29;20206;-89
2021/10/06 01:09:37;;;;;;;15.73;8.82;;;;;;;;;;4866619;29;20232;-89
2021/10/06 01:12:49;;;;;;;16.73;9.30;;;;;;;;;;4876374;29;20186;-92
2021/10/06 01:16:01;;;;;;;15.90;7.63;;;;;;;;;;4874517;29;20194;-90
2021/10/06 01:19:20;;;;;;;15.82;7.40;;;;;;;;;;4866639;29;20945;-91
2021/10/06 01:22:34;;;;;;;14.00;6.70;;;;;;;;;;4875534;29;20189;-90
2021/10/06 01:25:45;;;;;;;14.65;7.32;;;;;;;;;;4857763;29;20231;-90
2021/10/06 01:28:56;;;;;;;12.55;6.30;;;;;;;;;;4855005;29;20241;-91
2021/10/06 01:32:12;;;;;;;10.65;6.13;;;;;;;;;;4856274;29;20666;-90
2021/10/06 01:35:24;;;;;;;11.25;5.72;;;;;;;;;;4863821;29;20267;-90
2021/10/06 01:38:41;;;;;;;8.95;5.82;;;;;;;;;;4878092;29;20230;-91
2021/10/06 01:41:53;;;;;;;7.90;4.35;;;;;;;;;;4875845;29;20225;-89
2021/10/06 01:45:06;;;;;;;9.98;4.20;;;;;;;;;;4875489;29;20249;-91
2021/10/06 01:48:18;;;;;;;9.05;4.45;;;;;;;;;;4873701;29;20268;-90
2021/10/06 01:51:30;;;;;;;8.38;4.15;;;;;;;;;;4875663;29;20189;-91
2021/10/06 01:54:43;;;;;;;10.93;4.00;;;;;;;;;;4875786;29;20185;-90
2021/10/06 01:57:55;;;;;;;9.20;3.75;;;;;;;;;;4869608;29;20202;-91
2021/10/06 02:01:08;;;;;;;6.10;3.55;;;;;;;;;;4854682;29;20652;-89
2021/10/06 02:04:20;;;;;;;8.18;3.90;;;;;;;;;;4866064;29;20209;-91
2021/10/06 02:07:32;;;;;;;7.32;3.65;;;;;;;;;;4865166;29;20689;-91
2021/10/06 02:10:45;;;;;;;6.78;3.88;;;;;;;;;;4852125;29;20199;-90
2021/10/06 02:13:56;;;;;;;6.63;2.95;;;;;;;;;;4851513;29;20246;-90
2021/10/06 02:17:07;;;;;;;5.15;2.47;;;;;;;;;;4850784;29;20332;-89
2021/10/06 02:20:18;;;;;;;4.13;2.85;;;;;;;;;;4854161;29;20291;-91
2021/10/06 02:23:30;;;;;;;5.15;2.65;;;;;;;;;;4853163;29;20199;-89
2021/10/06 02:26:43;;;;;;;4.15;2.72;;;;;;;;;;4853000;29;20216;-90
2021/10/06 02:29:55;;;;;;;4.07;2.67;;;;;;;;;;4851955;29;20187;-90
2021/10/06 02:33:07;;;;;;;4.72;2.45;;;;;;;;;;4851275;29;20202;-91
2021/10/06 02:36:20;;;;;;;4.57;2.40;;;;;;;;;;4850685;29;20234;-90
2021/10/06 02:39:32;;;;;;;3.13;2.38;;;;;;;;;;4850657;29;20328;-91
2021/10/06 02:42:46;;;;;;;5.65;2.58;;;;;;;;;;4851723;29;20219;-91
2021/10/06 02:45:58;;;;;;;5.20;2.70;;;;;;;;;;4851578;29;20212;-92
2021/10/06 02:49:09;;;;;;;3.30;2.50;;;;;;;;;;4852341;29;20191;-90
2021/10/06 02:52:20;;;;;;;6.63;2.60;;;;;;;;;;4851710;29;20214;-90
2021/10/06 02:55:31;;;;;;;5.25;2.80;;;;;;;;;;4851679;29;20566;-91
2021/10/06 02:58:44;;;;;;;4.03;2.47;;;;;;;;;;4868957;29;20650;-90
2021/10/06 03:01:56;;;;;;;4.53;2.80;;;;;;;;;;4870740;29;20343;-89
2021/10/06 03:05:08;;;;;;;4.95;2.40;;;;;;;;;;4870859;29;20319;-90
2021/10/06 03:08:20;;;;;;;7.70;2.83;;;;;;;;;;4867572;29;20217;-91
2021/10/06 03:11:31;;;;;;;4.90;2.38;;;;;;;;;;4868715;29;20177;-89
2021/10/06 03:14:44;;;;;;;3.05;1.60;;;;;;;;;;4868799;29;20194;-90
2021/10/06 03:17:55;;;;;;;3.03;1.60;;;;;;;;;;4868617;29;20346;-89
2021/10/06 03:21:06;;;;;;;4.53;1.75;;;;;;;;;;4868855;29;20227;-89
2021/10/06 03:24:17;;;;;;;5.88;1.52;;;;;;;;;;4867524;29;20177;-89
2021/10/06 03:27:28;;;;;;;1.42;1.17;;;;;;;;;;4867444;29;20203;-89
2021/10/06 03:30:41;;;;;;;1.95;1.10;;;;;;;;;;4849810;29;20199;-90
2021/10/06 03:33:53;;;;;;;2.70;1.42;;;;;;;;;;4854113;29;20316;-89
2021/10/06 03:37:04;;;;;;;1.55;1.00;;;;;;;;;;4852817;29;20218;-89
2021/10/06 03:40:16;;;;;;;5.15;1.25;;;;;;;;;;4850771;29;20187;-89
2021/10/06 03:43:28;;;;;;;1.92;1.23;;;;;;;;;;4850128;29;20219;-89
2021/10/06 03:46:42;;;;;;;1.75;1.10;;;;;;;;;;4850214;29;20411;-90
2021/10/06 03:49:53;;;;;;;1.80;1.00;;;;;;;;;;4850798;29;20190;-89
2021/10/06 03:53:04;;;;;;;2.60;1.08;;;;;;;;;;4850056;29;20214;-90
2021/10/06 03:56:19;;;;;;;3.63;1.10;;;;;;;;;;4850626;29;20206;-91
2021/10/06 03:59:30;;;;;;;2.38;1.42;;;;;;;;;;4851870;29;20191;-90
2021/10/06 04:06:42;;;;;;;1.27;1.10;;;;;;;;;;4872772;29;20190;-89
2021/10/06 04:09:54;;;;;;;2.47;1.30;;;;;;;;;;4874348;29;20213;-89
2021/10/06 04:13:05;;;;;;;2.85;1.20;;;;;;;;;;4872750;29;20377;-89
2021/10/06 04:16:18;;;;;;;4.38;1.10;;;;;;;;;;4872599;29;20246;-88
2021/10/06 04:19:29;;;;;;;5.07;1.30;;;;;;;;;;4872235;29;20261;-90
2021/10/06 04:22:43;;;;;;;2.47;1.20;;;;;;;;;;4854873;29;20219;-89
2021/10/06 04:25:54;;;;;;;2.72;1.83;;;;;;;;;;4865193;29;20237;-91
2021/10/06 04:29:06;;;;;;;2.83;1.17;;;;;;;;;;4855339;29;20199;-90
2021/10/06 04:32:19;;;;;;;3.83;1.05;;;;;;;;;;4874535;29;20198;-89
2021/10/06 04:35:31;;;;;;;6.32;1.73;;;;;;;;;;4860812;29;20335;-91
2021/10/06 04:38:44;;;;;;;9.30;2.10;;;;;;;;;;4873697;29;20215;-91
2021/10/06 04:41:56;;;;;;;5.70;1.70;;;;;;;;;;4873363;29;20270;-91
2021/10/06 04:45:09;;;;;;;2.63;1.35;;;;;;;;;;4875542;29;20650;-89
2021/10/06 04:48:22;;;;;;;5.78;1.50;;;;;;;;;;4875600;29;20208;-91
2021/10/06 04:51:33;;;;;;;4.53;1.77;;;;;;;;;;4872867;29;20200;-89
2021/10/06 04:54:47;;;;;;;4.38;1.40;;;;;;;;;;4875817;29;20202;-90
2021/10/06 04:57:59;;;;;;;4.05;1.77;;;;;;;;;;4858294;29;20206;-90
2021/10/06 05:01:10;;;;;;;4.38;1.70;;;;;;;;;;4873403;29;20234;-90
2021/10/06 05:04:51;;;;;;;8.10;1.80;;;;;;;;;;4870748;29;20283;-90
2021/10/06 05:08:04;;;;;;;7.78;2.10;;;;;;;;;;4855877;29;20233;-90
2021/10/06 05:11:18;;;;;;;7.57;1.98;;;;;;;;;;4854768;29;20210;-89
2021/10/06 05:14:29;;;;;;;6.82;1.70;;;;;;;;;;4856209;29;20221;-91
2021/10/06 05:17:41;;;;;;;5.18;1.60;;;;;;;;;;4855883;29;20199;-90
2021/10/06 05:20:53;;;;;;;3.13;1.70;;;;;;;;;;4858069;29;20190;-90
2021/10/06 05:24:04;;;;;;;4.45;1.88;;;;;;;;;;4854735;29;20202;-90
2021/10/06 05:27:19;;;;;;;6.18;2.05;;;;;;;;;;4854809;29;20259;-90
2021/10/06 05:30:33;;;;;;;11.43;2.30;;;;;;;;;;4870002;29;20197;-90
2021/10/06 05:33:45;;;;;;;8.80;2.03;;;;;;;;;;4873439;29;20331;-92
2021/10/06 05:36:57;;;;;;;7.22;2.10;;;;;;;;;;4873969;29;20294;-89
2021/10/06 05:40:09;;;;;;;5.50;1.90;;;;;;;;;;4859754;29;20218;-89
2021/10/06 05:43:24;;;;;;;6.57;2.30;;;;;;;;;;4856786;29;20199;-89
2021/10/06 05:46:36;;;;;;;7.38;2.08;;;;;;;;;;4857945;29;20207;-90
2021/10/06 05:49:48;;;;;;;6.80;2.45;;;;;;;;;;4865341;29;20198;-89
2021/10/06 05:53:00;;;;;;;8.35;2.40;;;;;;;;;;4865081;29;20214;-90
2021/10/06 05:56:13;;;;;;;6.32;2.42;;;;;;;;;;4853081;29;20336;-90
2021/10/06 05:59:26;;;;;;;5.65;2.42;;;;;;;;;;4853883;29;20193;-90
2021/10/06 06:02:42;;;;;;;6.55;2.47;;;;;;;;;;4857062;29;20287;-90
2021/10/06 06:05:54;;;;;;;7.18;2.20;;;;;;;;;;4856777;29;20202;-91
2021/10/06 06:09:06;;;;;;;7.18;2.40;;;;;;;;;;4853298;29;20294;-90
2021/10/06 06:12:17;;;;;;;5.60;2.10;;;;;;;;;;4854624;29;20275;-90
2021/10/06 06:15:29;;;;;;;5.43;2.42;;;;;;;;;;4854503;29;20270;-90
2021/10/06 06:18:41;;;;;;;16.58;4.82;;;;;;;;;;4856719;29;20319;-90
2021/10/06 06:21:52;;;;;;;9.90;2.88;;;;;;;;;;4856594;29;20287;-91
2021/10/06 06:25:04;;;;;;;11.55;3.00;;;;;;;;;;4855589;29;20207;-89
2021/10/06 06:28:16;;;;;;;6.32;2.50;;;;;;;;;;4873091;29;20299;-91
2021/10/06 06:31:28;;;;;;;4.53;2.65;;;;;;;;;;4864337;29;20233;-90
2021/10/06 06:34:40;;;;;;;9.43;2.47;;;;;;;;;;4872492;29;20201;-91
2021/10/06 06:37:52;;;;;;;8.07;2.22;;;;;;;;;;4852357;29;20255;-90
2021/10/06 06:41:04;;;;;;;5.78;2.50;;;;;;;;;;4854842;29;20206;-88
2021/10/06 06:44:16;;;;;;;6.53;2.30;;;;;;;;;;4853615;29;20590;-90
2021/10/06 06:47:30;;;;;;;5.57;2.15;;;;;;;;;;4853594;29;20254;-91
2021/10/06 06:50:41;;;;;;;6.60;2.50;;;;;;;;;;4853205;29;20202;-91
2021/10/06 06:53:53;;;;;;;5.60;2.30;;;;;;;;;;4852857;29;20206;-91
2021/10/06 07:00:31;;;;;;;3.05;1.88;;;;;;;;;;4853845;29;20229;-91
2021/10/06 07:08:22;;;;;;;9.25;2.40;;;;;;;;;;4854572;29;20202;-90
2021/10/06 07:11:33;;;;;;;5.05;2.00;;;;;;;;;;4853203;29;20227;-92
2021/10/06 07:14:45;;;;;;;6.55;2.50;;;;;;;;;;4854541;29;20206;-92
2021/10/06 07:18:01;;;;;;;8.35;2.55;;;;;;;;;;4854460;29;20202;-91
2021/10/06 07:21:13;;;;;;;8.73;2.45;;;;;;;;;;4857078;29;20195;-89
2021/10/06 07:24:26;;;;;;;3.47;2.08;;;;;;;;;;4855013;29;20199;-90
2021/10/06 07:27:39;;;;;;;6.72;2.40;;;;;;;;;;4855770;29;20198;-91
2021/10/06 07:30:55;;;;;;;8.93;2.80;;;;;;;;;;4856107;29;20226;-91
2021/10/06 07:34:08;;;;;;;4.80;2.47;;;;;;;;;;4858268;29;20323;-88
2021/10/06 07:37:20;;;;;;;20.42;9.65;;;;;;;;;;4857771;29;20303;-91
2021/10/06 07:40:35;;;;;;;11.63;4.10;;;;;;;;;;4861237;29;20210;-91
2021/10/06 07:47:12;;;;;;;7.57;2.67;;;;;;;;;;4862090;29;20677;-91
2021/10/06 07:50:25;;;;;;;6.25;2.47;;;;;;;;;;4858360;29;20249;-91
2021/10/06 07:53:38;;;;;;;8.57;2.78;;;;;;;;;;4860157;29;20214;-90
2021/10/06 07:56:51;;;;;;;6.10;2.50;;;;;;;;;;4858432;29;20196;-90
2021/10/06 08:00:03;;;;;;;7.07;1.90;;;;;;;;;;4856638;29;20227;-91
2021/10/06 08:03:45;;;;;;;7.05;2.08;;;;;;;;;;4857481;29;20371;-89
2021/10/06 08:06:58;;;;;;;5.15;2.05;;;;;;;;;;4855973;29;20279;-93
2021/10/06 08:10:10;;;;;;;5.20;1.95;;;;;;;;;;4855768;29;20202;-91
2021/10/06 08:13:24;;;;;;;3.97;1.70;;;;;;;;;;4848435;29;20198;-92
2021/10/06 08:16:38;;;;;;;8.73;2.60;;;;;;;;;;4857537;29;20327;-91
2021/10/06 08:19:54;;;;;;;9.98;1.80;;;;;;;;;;4858595;29;20728;-89
2021/10/06 08:23:07;;;;;;;8.38;2.90;;;;;;;;;;4858091;29;20206;-91
2021/10/06 08:26:18;;;;;;;8.32;2.33;;;;;;;;;;4856525;29;20236;-90
2021/10/06 08:29:33;;;;;;;4.03;1.70;;;;;;;;;;4855457;29;20328;-88
2021/10/06 08:32:45;;;;;;;3.60;1.40;;;;;;;;;;4857340;29;20222;-90
2021/10/06 08:36:00;;;;;;;6.03;1.70;;;;;;;;;;4856608;29;20206;-90
2021/10/06 08:39:12;;;;;;;5.72;1.67;;;;;;;;;;4856512;29;20203;-89
2021/10/06 08:42:24;;;;;;;5.85;1.50;;;;;;;;;;4858340;29;20259;-91
2021/10/06 08:45:40;;;;;;;7.60;1.70;;;;;;;;;;4859339;29;20255;-89
2021/10/06 08:48:52;;;;;;;6.22;1.73;;;;;;;;;;4858513;29;20262;-88
2021/10/06 08:52:04;;;;;;;7.05;1.50;;;;;;;;;;4857298;29;20340;-91
2021/10/06 08:55:16;;;;;;;4.40;1.60;;;;;;;;;;4876194;29;20275;-89
2021/10/06 08:58:27;;;;;;;8.85;2.25;;;;;;;;;;4862661;29;20194;-93
2021/10/06 09:01:43;;;;;;;6.88;1.60;;;;;;;;;;4873302;29;20198;-92
2021/10/06 09:04:58;;;;;;;3.13;1.30;;;;;;;;;;4875332;29;20208;-91
2021/10/06 09:08:11;;;;;;;5.72;1.80;;;;;;;;;;4877140;29;20210;-92
2021/10/06 09:11:24;;;;;;;5.68;1.65;;;;;;;;;;4857551;29;20283;-91
2021/10/06 09:14:40;;;;;;;8.00;1.75;;;;;;;;;;4862195;29;20213;-90
2021/10/06 09:17:55;;;;;;;6.35;1.65;;;;;;;;;;4875510;29;20261;-89
2021/10/06 09:21:08;;;;;;;2.80;1.40;;;;;;;;;;4859702;29;20208;-89
2021/10/06 09:24:21;;;;;;;4.63;1.67;;;;;;;;;;4855068;29;20776;-91
2021/10/06 09:27:32;;;;;;;5.15;1.75;;;;;;;;;;4872118;29;20197;-91
2021/10/06 09:30:44;;;;;;;4.03;1.48;;;;;;;;;;4871108;29;20223;-90
2021/10/06 09:33:59;;;;;;;6.05;1.60;;;;;;;;;;4873927;29;20669;-91
2021/10/06 09:37:27;;;;;;;2.75;1.20;;;;;;;;;;4872391;29;20194;-90
2021/10/06 09:40:38;;;;;;;4.40;1.50;;;;;;;;;;4863578;29;20195;-90
2021/10/06 09:43:56;;;;;;;5.60;1.40;;;;;;;;;;4852485;29;20218;-89
2021/10/06 09:47:10;;;;;;;2.70;1.02;;;;;;;;;;4855692;29;20199;-92
2021/10/06 09:50:25;;;;;;;5.28;1.52;;;;;;;;;;4855334;29;20194;-91
2021/10/06 09:53:36;;;;;;;8.00;1.50;;;;;;;;;;4854316;29;20563;-91
2021/10/06 09:56:49;;;;;;;6.30;1.65;;;;;;;;;;4854421;29;20191;-91
2021/10/06 10:00:02;;;;;;;7.35;1.45;;;;;;;;;;4854543;29;20210;-91
2021/10/06 10:04:08;;;;;;;6.30;1.30;;;;;;;;;;4868656;29;20688;-91
2021/10/06 10:07:22;;;;;;;3.65;1.17;;;;;;;;;;4854277;29;20225;-92
2021/10/06 10:10:35;;;;;;;3.22;1.10;;;;;;;;;;4856749;29;20195;-91
2021/10/06 10:13:48;;;;;;;3.25;1.40;;;;;;;;;;4857125;29;20313;-92
2021/10/06 10:17:00;;;;;;;5.88;1.10;;;;;;;;;;4854827;29;20252;-92
2021/10/06 10:20:14;;;;;;;3.30;1.25;;;;;;;;;;4853396;29;20222;-91
2021/10/06 10:23:28;;;;;;;2.92;1.10;;;;;;;;;;4854394;29;20235;-93
2021/10/06 10:26:55;;;;;;;3.53;0.90;;;;;;;;;;4852762;29;20195;-91
2021/10/06 10:30:08;;;;;;;2.65;1.30;;;;;;;;;;4854299;29;20230;-90
2021/10/06 10:33:37;;;;;;;3.30;1.10;;;;;;;;;;4852531;29;20195;-91
2021/10/06 10:36:52;;;;;;;3.72;1.25;;;;;;;;;;4856515;29;20253;-92
2021/10/06 10:40:06;;;;;;;4.32;1.80;;;;;;;;;;4855819;29;20195;-89
2021/10/06 10:43:20;;;;;;;6.15;1.38;;;;;;;;;;4856068;29;20230;-93
2021/10/06 10:46:52;;;;;;;3.45;1.17;;;;;;;;;;4855386;29;20195;-91
2021/10/06 10:50:06;;;;;;;6.97;1.10;;;;;;;;;;4854850;29;20210;-90
2021/10/06 10:53:19;;;;;;;6.60;1.10;;;;;;;;;;4863730;29;20217;-92
2021/10/06 10:56:43;;;;;;;4.85;0.90;;;;;;;;;;4872336;29;20186;-90
2021/10/06 10:59:58;;;;;;;4.22;0.98;;;;;;;;;;4868712;29;20198;-91
2021/10/06 11:03:10;;;;;;;3.85;1.23;;;;;;;;;;4856417;29;20229;-89
2021/10/06 11:06:34;;;;;;;5.15;1.40;;;;;;;;;;4872179;29;20235;-89
2021/10/06 11:09:47;;;;;;;2.70;1.00;;;;;;;;;;4871735;29;20222;-92
2021/10/06 11:13:05;;;;;;;4.70;1.52;;;;;;;;;;4870266;29;20202;-91
2021/10/06 11:24:22;;;;;;;5.95;1.10;;;;;;;;;;4874052;29;20242;-93
2021/10/06 11:27:45;;;;;;;3.45;0.90;;;;;;;;;;4873485;29;20279;-92
2021/10/06 11:30:58;;;;;;;6.15;1.15;;;;;;;;;;4866911;29;20206;-89
2021/10/06 11:34:18;;;;;;;10.05;3.28;;;;;;;;;;4852676;29;20186;-90
2021/10/06 11:37:34;;;;;;;2.10;0.90;;;;;;;;;;4855885;29;20207;-90
2021/10/06 11:40:47;;;;;;;3.28;1.35;;;;;;;;;;4852434;29;20247;-91
2021/10/06 11:43:58;;;;;;;3.42;1.10;;;;;;;;;;4851520;29;20218;-91
2021/10/06 11:47:12;;;;;;;4.63;1.50;;;;;;;;;;4852344;29;20228;-90
2021/10/06 11:50:22;;;;;;;2.90;1.10;;;;;;;;;;4852212;29;20293;-92
2021/10/06 11:53:45;;;;;;;3.20;1.08;;;;;;;;;;4852317;29;20207;-91
2021/10/06 11:56:57;;;;;;;3.67;1.13;;;;;;;;;;4851237;29;20198;-90
2021/10/06 12:00:16;;;;;;;4.32;1.10;;;;;;;;;;4851472;29;20187;-91
2021/10/06 12:08:08;;;;;;;4.35;1.20;;;;;;;;;;4852749;29;20207;-91
2021/10/06 12:11:19;;;;;;;5.57;1.33;;;;;;;;;;4852777;29;20203;-91
2021/10/06 12:14:33;;;;;;;4.65;1.35;;;;;;;;;;4854313;29;20203;-90
2021/10/06 12:17:47;;;;;;;3.75;0.98;;;;;;;;;;4853374;29;20625;-92
2021/10/06 12:20:58;;;;;;;2.33;1.10;;;;;;;;;;4852746;29;20194;-92
2021/10/06 12:24:21;;;;;;;4.15;1.08;;;;;;;;;;4852598;29;20226;-91
2021/10/06 12:27:35;;;;;;;8.15;1.20;;;;;;;;;;4856368;29;20224;-91
2021/10/06 12:30:53;;;;;;;3.28;1.08;;;;;;;;;;4855422;29;20194;-91
2021/10/06 12:34:11;;;;;;;3.90;1.05;;;;;;;;;;4855929;29;20255;-90
2021/10/06 12:37:26;;;;;;;3.42;0.95;;;;;;;;;;4862556;29;20226;-92
2021/10/06 12:40:40;;;;;;;4.78;0.90;;;;;;;;;;4875163;29;20294;-91
2021/10/06 12:43:53;;;;;;;7.85;1.35;;;;;;;;;;4876358;29;20218;-91
2021/10/06 12:47:11;;;;;;;3.08;1.00;;;;;;;;;;4874533;29;20209;-91
2021/10/06 12:50:22;;;;;;;3.80;1.20;;;;;;;;;;4875059;29;20193;-92
2021/10/06 12:53:33;;;;;;;5.32;0.90;;;;;;;;;;4874299;29;20189;-90
2021/10/06 12:56:52;;;;;;;3.58;1.02;;;;;;;;;;4873449;29;20279;-91
2021/10/06 13:00:17;;;;;;;1.77;0.80;;;;;;;;;;4878030;29;20276;-91
2021/10/06 13:03:40;;;;;;;5.93;1.40;;;;;;;;;;4879596;29;20226;-90
2021/10/06 13:06:52;;;;;;;1.98;0.80;;;;;;;;;;4879699;29;20194;-92
2021/10/06 13:10:07;;;;;;;1.52;0.75;;;;;;;;;;4879456;29;20221;-92
2021/10/06 13:13:20;;;;;;;0.75;0.60;;;;;;;;;;4877551;29;20206;-92
2021/10/06 13:16:32;;;;;;;2.30;0.60;;;;;;;;;;4878813;29;20251;-92
2021/10/06 13:19:44;;;;;;;1.25;0.60;;;;;;;;;;4878281;29;20189;-91
2021/10/06 13:22:56;;;;;;;2.22;0.73;;;;;;;;;;4876886;29;20564;-90
2021/10/06 13:26:10;;;;;;;1.23;0.80;;;;;;;;;;4876906;29;20202;-93
2021/10/06 13:29:25;;;;;;;4.38;1.00;;;;;;;;;;4877396;29;20209;-92
2021/10/06 13:32:39;;;;;;;4.40;0.90;;;;;;;;;;4861705;29;20207;-91
2021/10/06 13:35:50;;;;;;;1.98;1.27;;;;;;;;;;4860134;29;20252;-91
2021/10/06 13:39:05;;;;;;;1.85;1.20;;;;;;;;;;4861544;29;20204;-90
2021/10/06 13:42:18;;;;;;;4.28;1.60;;;;;;;;;;4860769;29;20270;-90
2021/10/06 13:45:31;;;;;;;9.00;3.17;;;;;;;;;;4859385;29;20207;-90
2021/10/06 13:48:43;;;;;;;0.60;0.60;;;;;;;;;;4862588;29;20246;-90
2021/10/06 13:51:55;;;;;;;4.90;1.30;;;;;;;;;;4857419;29;20199;-91
2021/10/06 13:55:07;;;;;;;3.78;1.42;;;;;;;;;;4855063;29;20334;-91
2021/10/06 13:58:19;;;;;;;30.27;18.73;;;;;;;;;;4857104;29;20285;-92
2021/10/06 14:01:42;;;;;;;3.78;2.60;;;;;;;;;;4856056;29;20336;-91
2021/10/06 14:04:56;;;;;;;8.32;4.45;;;;;;;;;;4860801;29;20226;-91
2021/10/06 14:08:12;;;;;;;4.10;1.80;;;;;;;;;;4861038;29;20187;-91
2021/10/06 14:11:25;;;;;;;4.68;1.20;;;;;;;;;;4862348;29;20211;-93
2021/10/06 14:14:38;;;;;;;2.90;2.00;;;;;;;;;;4860575;29;20202;-91
2021/10/06 14:17:54;;;;;;;4.70;1.90;;;;;;;;;;4873315;29;20260;-90
2021/10/06 14:21:08;;;;;;;4.25;1.88;;;;;;;;;;4874060;29;20231;-90
2021/10/06 14:24:33;;;;;;;173.52;48.92;;;;;;;;;;4875438;29;20225;-91
2021/10/06 14:27:45;;;;;;;1247.25;461.70;;;;;;;;;;4873774;29;20190;-90
2021/10/06 14:30:57;;;;;;;173.65;51.03;;;;;;;;;;4874977;29;20242;-90
2021/10/06 14:34:21;;;;;;;52.15;23.25;;;;;;;;;;4867609;29;20229;-90
2021/10/06 14:37:33;;;;;;;12.32;6.50;;;;;;;;;;4876371;29;20193;-92
2021/10/06 14:40:47;;;;;;;8.93;5.20;;;;;;;;;;4875683;29;20186;-91
2021/10/06 14:44:00;;;;;;;6.03;2.42;;;;;;;;;;4873481;29;20278;-92
2021/10/06 14:47:12;;;;;;;6.05;2.53;;;;;;;;;;4873864;29;20198;-92
2021/10/06 14:50:26;;;;;;;12.75;6.15;;;;;;;;;;4872187;29;20319;-93
2021/10/06 14:57:09;;;;;;;10.80;3.20;;;;;;;;;;4875955;29;20209;-89
2021/10/06 15:00:24;;;;;;;8.57;2.85;;;;;;;;;;4876813;29;20654;-92
2021/10/06 15:03:36;;;;;;;8.88;4.47;;;;;;;;;;4874566;29;20225;-91
2021/10/06 15:07:03;;;;;;;5.28;2.63;;;;;;;;;;4857915;29;20552;-91
2021/10/06 15:14:12;;;;;;;5.78;2.50;;;;;;;;;;4855080;29;20203;-91
2021/10/06 15:17:24;;;;;;;5.55;1.90;;;;;;;;;;4854895;29;20682;-91
2021/10/06 15:20:47;;;;;;;8.52;4.53;;;;;;;;;;4854628;29;20274;-91
2021/10/06 15:24:06;;;;;;;5.70;2.42;;;;;;;;;;4856720;29;20221;-91
2021/10/06 15:27:18;;;;;;;2.70;1.70;;;;;;;;;;4854686;29;20198;-92
2021/10/06 15:30:32;;;;;;;6.97;1.95;;;;;;;;;;4854544;29;20210;-91
2021/10/06 15:37:09;;;;;;;2.60;1.55;;;;;;;;;;4868841;29;20227;-90
2021/10/06 15:40:21;;;;;;;8.05;1.38;;;;;;;;;;4860551;29;20206;-90
2021/10/06 15:43:33;;;;;;;3.22;1.35;;;;;;;;;;4855624;29;20198;-90
2021/10/06 15:46:47;;;;;;;3.60;1.55;;;;;;;;;;4855531;29;20703;-90
2021/10/06 15:49:58;;;;;;;3.38;1.40;;;;;;;;;;4855777;29;20199;-89
2021/10/06 15:53:12;;;;;;;5.20;2.00;;;;;;;;;;4853872;29;20198;-90
2021/10/06 15:56:24;;;;;;;6.30;2.88;;;;;;;;;;4854849;29;20223;-88
2021/10/06 15:59:35;;;;;;;4.93;2.15;;;;;;;;;;4854037;29;20198;-89
2021/10/06 16:02:48;;;;;;;5.03;2.10;;;;;;;;;;4873075;29;20247;-91
2021/10/06 16:06:03;;;;;;;4.47;1.95;;;;;;;;;;4877769;29;20214;-90
2021/10/06 16:09:20;;;;;;;3.83;1.60;;;;;;;;;;4868835;29;20279;-91
2021/10/06 16:12:31;;;;;;;4.90;2.17;;;;;;;;;;4859966;29;20197;-89
2021/10/06 16:15:44;;;;;;;5.82;2.55;;;;;;;;;;4858040;29;20278;-91
2021/10/06 16:19:01;;;;;;;7.38;3.28;;;;;;;;;;4859065;29;20198;-92
2021/10/06 16:22:13;;;;;;;4.97;2.15;;;;;;;;;;4858702;29;20302;-91
2021/10/06 16:25:25;;;;;;;7.00;2.50;;;;;;;;;;4858376;29;20244;-91
2021/10/06 16:28:48;;;;;;;5.50;2.25;;;;;;;;;;4860776;29;20316;-91
2021/10/06 16:32:01;;;;;;;9.45;2.45;;;;;;;;;;4858247;29;20203;-92
2021/10/06 16:35:15;;;;;;;9.43;4.13;;;;;;;;;;4859129;29;20220;-91
2021/10/06 16:38:27;;;;;;;5.53;2.38;;;;;;;;;;4860619;29;20195;-91
2021/10/06 16:41:40;;;;;;;3.55;2.00;;;;;;;;;;4860519;29;20203;-90
2021/10/06 16:44:51;;;;;;;6.57;2.58;;;;;;;;;;4858561;29;20230;-91
2021/10/06 16:48:03;;;;;;;6.78;3.60;;;;;;;;;;4858585;29;20191;-91
2021/10/06 16:51:16;;;;;;;9.23;4.25;;;;;;;;;;4860279;29;20248;-92
2021/10/06 16:54:28;;;;;;;8.45;5.60;;;;;;;;;;4858568;29;20194;-91
2021/10/06 16:57:41;;;;;;;12.95;6.40;;;;;;;;;;4856956;29;20207;-91
2021/10/06 17:00:53;;;;;;;8.48;4.45;;;;;;;;;;4856857;29;20249;-92
2021/10/06 17:04:06;;;;;;;7.68;3.85;;;;;;;;;;4858460;29;20230;-91
2021/10/06 17:07:33;;;;;;;7.18;3.30;;;;;;;;;;4856496;29;20198;-90
2021/10/06 17:10:46;;;;;;;6.32;3.28;;;;;;;;;;4859216;29;20228;-92
2021/10/06 17:14:00;;;;;;;8.15;3.35;;;;;;;;;;4858600;29;20388;-90
2021/10/06 17:17:11;;;;;;;9.43;4.03;;;;;;;;;;4858203;29;20203;-91
2021/10/06 17:20:23;;;;;;;8.10;4.40;;;;;;;;;;4857741;29;20236;-92
2021/10/06 17:23:38;;;;;;;10.63;4.75;;;;;;;;;;4861582;29;20199;-91
2021/10/06 17:26:50;;;;;;;8.57;4.30;;;;;;;;;;4859121;29;20231;-92
2021/10/06 17:30:02;;;;;;;11.15;5.35;;;;;;;;;;4865369;29;20182;-91
2021/10/06 17:33:18;;;;;;;11.18;5.97;;;;;;;;;;4859121;29;20236;-90
2021/10/06 17:36:31;;;;;;;17.52;7.68;;;;;;;;;;4859072;29;20199;-91
2021/10/06 17:39:46;;;;;;;17.02;7.20;;;;;;;;;;4859363;29;20194;-90
2021/10/06 17:42:58;;;;;;;14.93;5.70;;;;;;;;;;4858377;29;20285;-90
2021/10/06 17:46:10;;;;;;;8.00;4.43;;;;;;;;;;4858536;29;20272;-91
2021/10/06 17:49:22;;;;;;;10.82;4.57;;;;;;;;;;4859374;29;20267;-92
2021/10/06 17:52:35;;;;;;;16.00;7.13;;;;;;;;;;4858520;29;20194;-91
2021/10/06 17:55:48;;;;;;;17.13;10.55;;;;;;;;;;4876036;29;20201;-91
2021/10/06 17:59:00;;;;;;;8.73;5.40;;;;;;;;;;4878271;29;20279;-91
2021/10/06 18:02:13;;;;;;;12.38;6.97;;;;;;;;;;4880049;29;20205;-91
2021/10/06 18:05:29;;;;;;;9.02;4.68;;;;;;;;;;4878590;29;20221;-91
2021/10/06 18:08:41;;;;;;;13.10;7.07;;;;;;;;;;4875702;29;20222;-92
2021/10/06 18:11:53;;;;;;;9.23;4.93;;;;;;;;;;4875470;29;20194;-91
2021/10/06 18:15:05;;;;;;;10.50;5.15;;;;;;;;;;4875561;29;20235;-92
2021/10/06 18:18:18;;;;;;;13.55;5.57;;;;;;;;;;4876188;29;20194;-91
2021/10/06 18:21:30;;;;;;;10.57;4.72;;;;;;;;;;4876188;29;20198;-92
2021/10/06 18:24:42;;;;;;;12.35;5.68;;;;;;;;;;4875291;29;20278;-90
2021/10/06 18:27:59;;;;;;;11.77;5.20;;;;;;;;;;4873190;29;20182;-92
2021/10/06 18:31:12;;;;;;;9.10;4.95;;;;;;;;;;4873877;29;20190;-91
2021/10/06 18:34:24;;;;;;;9.85;5.03;;;;;;;;;;4875053;29;20219;-91
2021/10/06 18:37:44;;;;;;;10.93;6.03;;;;;;;;;;4874126;29;20262;-90
2021/10/06 18:40:57;;;;;;;9.60;4.20;;;;;;;;;;4872868;29;20222;-91
2021/10/06 18:44:11;;;;;;;10.65;4.90;;;;;;;;;;4873011;29;20226;-90
2021/10/06 18:47:23;;;;;;;11.32;5.30;;;;;;;;;;4873983;29;20297;-91
2021/10/06 18:50:35;;;;;;;12.45;5.80;;;;;;;;;;4854273;29;20202;-92
2021/10/06 18:53:47;;;;;;;9.07;4.85;;;;;;;;;;4853965;29;20206;-91
2021/10/06 18:56:59;;;;;;;13.88;6.20;;;;;;;;;;4859004;29;20205;-93
2021/10/06 19:00:19;;;;;;;17.02;9.48;;;;;;;;;;4861251;29;20206;-92
2021/10/06 19:03:31;;;;;;;9.02;5.57;;;;;;;;;;4859913;29;20217;-92
2021/10/06 19:06:44;;;;;;;22.83;8.80;;;;;;;;;;4870408;29;20194;-91
2021/10/06 19:09:56;;;;;;;16.38;6.85;;;;;;;;;;4870451;29;20229;-92
2021/10/06 19:13:10;;;;;;;13.35;6.30;;;;;;;;;;4871828;29;20190;-92
2021/10/06 19:16:26;;;;;;;12.65;5.90;;;;;;;;;;4872474;29;20201;-92
2021/10/06 19:19:37;;;;;;;13.82;7.07;;;;;;;;;;4859932;29;20232;-94
2021/10/06 19:22:54;;;;;;;22.20;9.13;;;;;;;;;;4866234;29;20206;-90
2021/10/06 19:26:06;;;;;;;14.88;6.82;;;;;;;;;;4869491;29;20218;-92
2021/10/06 19:29:18;;;;;;;17.55;8.27;;;;;;;;;;4863077;29;20222;-90
2021/10/06 19:32:33;;;;;;;14.93;6.68;;;;;;;;;;4858648;29;20211;-91
2021/10/06 19:35:46;;;;;;;13.23;6.53;;;;;;;;;;4856737;29;20190;-91
2021/10/06 19:38:59;;;;;;;13.18;6.85;;;;;;;;;;4857092;29;20194;-91
2021/10/06 19:42:12;;;;;;;10.68;6.82;;;;;;;;;;4858637;29;20723;-91
2021/10/06 19:45:26;;;;;;;10.85;6.70;;;;;;;;;;4858587;29;20217;-92
2021/10/06 19:48:39;;;;;;;10.90;5.70;;;;;;;;;;4857868;29;20753;-91
2021/10/06 19:51:54;;;;;;;9.93;5.97;;;;;;;;;;4859280;29;20319;-91
2021/10/06 19:55:05;;;;;;;13.65;6.60;;;;;;;;;;4867936;29;20209;-92